Bob Sikes Airport
KCEW : rendu visible

Aérodrome :











RETROUVEZ-NOUS SUR...

 
LOGIN :

S'inscrire | Disclaimer

   EN    FR    IT 

 









Légende :    VFR   VFR Marginal   IFR   IFR Intensif   IFR Très Intensif
Visi : 
Plafond : 
>= 8 km
>= 3000ft
5 à 8 km
1000 à 3000 ft
1500m à 5 km
500 à 1000 ft
800 à 1500m
200 à 500 ft
< 800m
< 200 ft
Symboles :   Orages  Brouillard  Fortes neiges  Fortes précipitations  Vent > 20 kt







- Altitude de l'aérodrome : 213 ft


KCEW - Bob Sikes

DERNIER METAR :
  • 191353Z AUTO 11003KT 10SM CLR 25/21 A3004 RMK AO2 SLP170 T02500211

METARs EXPIRÉS :
  • 191342Z AUTO VRB03KT 10SM SCT001 23/21 A3004 RMK AO2 T02280211
  • 191324Z AUTO 00000KT 3SM BR OVC001 21/20 A3006 RMK AO2 T02110200
  • 191253Z AUTO 00000KT 1/2SM FG OVC001 20/19 A3004 RMK AO2 SLP170 T02000194
  • 191153Z AUTO 00000KT 1/4SM FG VV001 18/17 A3003 RMK AO2 SLP166 T01780172 10183 20161 51019

TAF N/A
FIR KZJX / Amérique du Nord



MET'MAP, la Météo Aéronautique d'un coup d'oeil ! - Copyright ORBIFLY Décembre 2007 - Disclaimer

ORBIFLY MET'MAP TEAM :

Programmation & Développement : Alexandra Zaïnal
Conception & Développement : Baudouin d'Aumeries
Co-Programmation & Développement : Marc-Olivier Méhu
Soutien technique & logistique : Manuel Goepfert

Contact : metmap@orbifly.com




SOURCES & CREDITS :

   NOAA       Earth
Advisory